New Orleans, Louisiana
Traffic Map
Current Weather Conditions
New Orleans, Louisiana
Clear
Clear
32°
Feels Like: 38°
Wind Chill: 32° Ceiling: Unl
Heat Index: 38° Visibility: 10mi
Dew Point: 24° Wind: 9mph
Humidity: 62% Direction: 330° (NNW)
Pressure: 30.04in Gusts: 16mph
Raw Report DataK7N0 291615Z AUTO 33008G14KT 10SM CLR 32/24 A3004 RMK AO1
Traffic Incident Summary
Active as of:
Severity:
Category:
InformationThere was an issue retrieving the traffic information for this location. Please try a different location or try again shortly.
Advertisements
Track Severe Weather on mobile